Time;durP1;ratioP1;P1;durP2;ratioP2;P2;SDS_P1;SDS_P2;PMS_P1;PMS_P2;Temp;Humidity;BMP_temperature;BMP_pressure;BME280_temperature;BME280_humidity;BME280_pressure;Samples;Min_cycle;Max_cycle;Signal;HPM_P1;HPM_P2
2020/12/13 00:00:56;;;;;;;14.70;11.47;;;8.90;1.00;;;;;;5093308;28;20449;-67
2020/12/13 00:03:22;;;;;;;14.40;10.63;;;9.00;1.00;;;;;;5093620;28;20521;-67
2020/12/13 00:05:47;;;;;;;18.83;11.47;;;8.90;1.00;;;;;;5093669;28;20199;-67
2020/12/13 00:08:13;;;;;;;17.27;11.50;;;8.90;1.00;;;;;;5093329;28;20187;-67
2020/12/13 00:10:39;;;;;;;15.83;10.40;;;8.90;1.00;;;;;;5094424;28;20191;-67
2020/12/13 00:13:04;;;;;;;15.73;11.20;;;9.00;1.00;;;;;;5098401;28;20168;-66
2020/12/13 00:15:30;;;;;;;18.20;11.60;;;9.00;1.00;;;;;;5093644;28;20171;-67
2020/12/13 00:17:55;;;;;;;14.80;10.63;;;9.00;1.00;;;;;;5093380;28;20181;-67
2020/12/13 00:20:21;;;;;;;19.53;12.37;;;8.90;1.00;;;;;;5093036;28;20294;-67
2020/12/13 00:22:47;;;;;;;17.33;11.50;;;8.90;1.00;;;;;;5093449;28;20168;-67
2020/12/13 00:25:13;;;;;;;17.83;11.87;;;9.00;1.00;;;;;;5093119;28;20225;-67
2020/12/13 00:27:41;;;;;;;20.03;11.57;;;9.00;1.00;;;;;;5093355;28;20410;-64
2020/12/13 00:30:07;;;;;;;15.50;11.43;;;9.00;1.00;;;;;;5092988;28;20217;-67
2020/12/13 00:32:32;;;;;;;18.90;10.87;;;8.90;1.00;;;;;;5093222;28;20913;-67
2020/12/13 00:34:58;;;;;;;15.23;10.23;;;8.90;1.00;;;;;;5092985;28;20741;-66
2020/12/13 00:37:25;;;;;;;15.47;11.33;;;8.90;1.00;;;;;;5092938;28;20176;-67
2020/12/13 00:39:51;;;;;;;15.80;12.23;;;8.90;1.00;;;;;;5092804;28;20427;-66
2020/12/13 00:42:16;;;;;;;18.93;12.30;;;8.90;1.00;;;;;;5092819;28;20191;-66
2020/12/13 00:44:42;;;;;;;15.93;11.40;;;9.00;1.00;;;;;;5093103;28;20164;-67
2020/12/13 00:47:08;;;;;;;20.53;12.10;;;8.90;1.00;;;;;;5092954;28;20187;-67
2020/12/13 00:49:34;;;;;;;17.80;11.03;;;8.90;1.00;;;;;;5092727;28;20429;-67
2020/12/13 00:52:01;;;;;;;16.50;11.60;;;8.90;1.00;;;;;;5092806;28;20170;-67
2020/12/13 00:54:26;;;;;;;13.90;10.53;;;8.70;1.00;;;;;;5092825;28;20429;-67
2020/12/13 00:56:52;;;;;;;15.30;11.23;;;8.70;1.00;;;;;;5092755;28;20439;-67
2020/12/13 00:59:17;;;;;;;20.43;11.67;;;8.70;1.00;;;;;;5108461;28;20187;-67
2020/12/13 01:01:43;;;;;;;16.53;11.30;;;8.80;1.00;;;;;;5092597;28;20195;-67
2020/12/13 01:04:08;;;;;;;12.67;10.20;;;8.80;1.00;;;;;;5092661;28;20532;-67
2020/12/13 01:06:34;;;;;;;17.80;11.60;;;8.90;1.00;;;;;;5094000;28;20168;-67
2020/12/13 01:09:00;;;;;;;12.80;10.23;;;8.80;1.00;;;;;;5096528;28;20187;-67
2020/12/13 01:11:31;;;;;;;15.90;10.30;;;8.80;1.00;;;;;;5096546;28;20675;-67
2020/12/13 01:13:58;;;;;;;13.47;9.87;;;8.90;1.00;;;;;;5096545;28;20166;-66
2020/12/13 01:16:25;;;;;;;17.60;10.27;;;8.80;1.00;;;;;;5096451;28;20423;-66
2020/12/13 01:18:51;;;;;;;14.30;10.83;;;8.70;1.00;;;;;;5096201;28;20456;-66
2020/12/13 01:21:18;;;;;;;15.97;11.23;;;8.80;1.00;;;;;;5096655;28;20437;-65
2020/12/13 01:23:44;;;;;;;15.23;11.07;;;8.90;1.00;;;;;;5096809;28;20965;-66
2020/12/13 01:26:14;;;;;;;22.93;12.53;;;9.00;1.00;;;;;;5096531;28;20484;-66
2020/12/13 01:28:40;;;;;;;14.80;10.77;;;8.80;1.00;;;;;;5096819;28;20440;-66
2020/12/13 01:31:07;;;;;;;16.93;10.50;;;8.90;1.00;;;;;;5096474;28;20780;-66
2020/12/13 01:33:33;;;;;;;16.33;11.52;;;8.90;1.00;;;;;;5096420;28;20918;-66
2020/12/13 01:35:59;;;;;;;18.57;10.30;;;8.90;1.00;;;;;;5096149;28;20171;-65
2020/12/13 01:38:25;;;;;;;16.60;10.07;;;8.90;1.00;;;;;;5095888;28;20495;-66
2020/12/13 01:40:57;;;;;;;14.47;10.87;;;8.90;1.00;;;;;;5094719;28;20540;-65
2020/12/13 01:43:23;;;;;;;17.77;11.80;;;8.90;1.00;;;;;;5096096;28;20171;-65
2020/12/13 01:45:49;;;;;;;19.30;9.93;;;8.90;1.00;;;;;;5111756;28;20446;-65
2020/12/13 01:48:14;;;;;;;17.70;11.30;;;8.90;1.00;;;;;;5095914;28;20410;-66
2020/12/13 01:50:45;;;;;;;15.63;11.53;;;8.90;1.00;;;;;;5096117;28;20301;-66
2020/12/13 01:53:17;;;;;;;16.20;11.00;;;8.90;1.00;;;;;;5096104;28;20163;-66
2020/12/13 01:55:47;;;;;;;18.73;11.50;;;9.00;1.00;;;;;;5096114;28;20382;-66
2020/12/13 01:58:30;;;;;;;16.47;11.20;;;9.00;1.00;;;;;;5095823;28;20473;-66
2020/12/13 02:00:59;;;;;;;16.90;11.77;;;9.10;1.00;;;;;;5095603;28;20942;-66
2020/12/13 02:03:28;;;;;;;16.33;11.10;;;9.00;1.00;;;;;;5111629;28;20774;-66
2020/12/13 02:06:05;;;;;;;17.20;11.43;;;9.00;1.00;;;;;;5095646;28;20504;-66
2020/12/13 02:08:40;;;;;;;18.70;12.80;;;9.00;1.00;;;;;;5095533;28;20417;-66
2020/12/13 02:11:07;;;;;;;18.20;12.73;;;9.00;1.00;;;;;;5095543;28;20401;-66
2020/12/13 02:13:33;;;;;;;16.80;11.40;;;8.90;1.00;;;;;;5095835;28;20379;-66
2020/12/13 02:15:59;;;;;;;17.20;11.80;;;8.90;1.00;;;;;;5095570;28;20906;-66
2020/12/13 02:18:28;;;;;;;17.67;11.30;;;8.90;1.00;;;;;;5094637;28;20894;-66
2020/12/13 02:20:55;;;;;;;17.03;11.87;;;8.90;1.00;;;;;;5095227;28;20482;-66
2020/12/13 02:23:22;;;;;;;18.47;11.43;;;8.90;1.00;;;;;;5095505;28;20401;-67
2020/12/13 02:25:48;;;;;;;17.00;11.60;;;8.90;1.00;;;;;;5095229;28;21033;-66
2020/12/13 02:28:14;;;;;;;19.17;12.30;;;9.00;1.00;;;;;;5095183;28;20431;-66
2020/12/13 02:30:39;;;;;;;16.00;11.40;;;8.90;1.00;;;;;;5095317;28;20196;-66
2020/12/13 02:33:06;;;;;;;17.00;11.50;;;9.00;1.00;;;;;;5095071;28;20902;-66
2020/12/13 02:35:31;;;;;;;18.60;13.05;;;8.90;1.00;;;;;;5095094;28;20177;-67
2020/12/13 02:37:57;;;;;;;25.07;12.43;;;8.80;1.00;;;;;;5094980;28;20175;-66
2020/12/13 02:40:23;;;;;;;20.57;12.17;;;8.80;34.30;;;;;;5094789;28;20201;-66
2020/12/13 02:42:48;;;;;;;18.33;12.80;;;8.90;99.90;;;;;;5094948;28;20164;-66
2020/12/13 02:45:14;;;;;;;19.00;12.30;;;8.90;99.90;;;;;;5094803;28;20163;-67
2020/12/13 02:47:40;;;;;;;20.30;14.20;;;9.00;99.90;;;;;;5095066;28;20174;-67
2020/12/13 02:50:06;;;;;;;22.30;13.17;;;9.00;74.20;;;;;;5094691;28;20423;-66
2020/12/13 02:52:31;;;;;;;18.97;12.83;;;9.10;55.30;;;;;;5094599;28;20593;-66
2020/12/13 02:54:57;;;;;;;20.10;12.47;;;9.00;42.40;;;;;;5094624;28;20398;-66
2020/12/13 02:57:23;;;;;;;17.50;12.37;;;9.00;56.90;;;;;;5094541;28;20258;-66
2020/12/13 02:59:48;;;;;;;19.57;12.63;;;9.00;28.90;;;;;;5094555;28;20180;-66
2020/12/13 03:02:14;;;;;;;22.90;13.13;;;8.90;99.90;;;;;;5094334;28;20194;-66
2020/12/13 03:04:40;;;;;;;21.50;14.83;;;9.00;99.90;;;;;;5094439;28;20171;-66
2020/12/13 03:07:05;;;;;;;19.97;13.80;;;9.00;99.90;;;;;;5110341;28;20172;-64
2020/12/13 03:09:31;;;;;;;24.17;14.73;;;9.00;99.90;;;;;;5109957;28;20304;-66
2020/12/13 03:11:56;;;;;;;23.27;15.40;;;9.00;99.90;;;;;;5094604;28;20191;-66
2020/12/13 03:14:22;;;;;;;24.43;13.63;;;9.10;99.90;;;;;;5094302;28;20171;-65
2020/12/13 03:16:47;;;;;;;24.90;15.40;;;9.10;95.00;;;;;;5094252;28;20658;-68
2020/12/13 03:19:13;;;;;;;22.37;16.20;;;9.00;99.90;;;;;;5094212;28;20203;-66
2020/12/13 03:21:38;;;;;;;25.43;16.77;;;9.00;99.90;;;;;;5094023;28;20281;-68
2020/12/13 03:24:04;;;;;;;23.80;16.50;;;8.90;99.90;;;;;;5094090;28;20167;-67
2020/12/13 03:26:30;;;;;;;23.10;14.50;;;8.80;99.90;;;;;;5094132;28;20163;-67
2020/12/13 03:28:55;;;;;;;21.20;15.03;;;9.10;99.90;;;;;;5094409;28;20176;-67
2020/12/13 03:31:21;;;;;;;24.73;16.63;;;9.20;99.90;;;;;;5093993;28;20586;-67
2020/12/13 03:33:47;;;;;;;22.37;16.30;;;9.10;99.90;;;;;;5093847;28;20709;-67
2020/12/13 03:36:13;;;;;;;22.00;16.57;;;9.00;99.90;;;;;;5093911;28;20171;-67
2020/12/13 03:38:39;;;;;;;23.23;15.70;;;9.00;99.90;;;;;;5094030;28;20458;-67
2020/12/13 03:41:05;;;;;;;24.47;15.07;;;9.10;99.90;;;;;;5093694;28;20289;-67
2020/12/13 03:43:30;;;;;;;27.63;17.33;;;9.00;99.90;;;;;;5093967;28;20216;-67
2020/12/13 03:45:56;;;;;;;21.27;15.53;;;9.00;99.90;;;;;;5093729;28;20657;-67
2020/12/13 03:48:21;;;;;;;24.30;15.77;;;9.20;99.90;;;;;;5093538;28;20663;-67
2020/12/13 03:50:47;;;;;;;22.80;15.53;;;9.20;99.90;;;;;;5093683;28;20171;-67
2020/12/13 03:53:14;;;;;;;23.80;16.70;;;9.30;92.90;;;;;;5093686;28;20172;-67
2020/12/13 03:55:41;;;;;;;22.90;15.30;;;9.10;1.00;;;;;;5093591;28;20511;-67
2020/12/13 03:58:07;;;;;;;23.00;15.93;;;9.00;99.90;;;;;;5093719;28;20417;-67
2020/12/13 04:00:34;;;;;;;19.97;15.20;;;8.90;91.20;;;;;;5093327;28;20598;-67
2020/12/13 04:03:02;;;;;;;24.00;16.57;;;8.90;99.90;;;;;;5093503;28;20484;-67
2020/12/13 04:05:27;;;;;;;23.43;14.80;;;8.90;99.90;;;;;;5093416;28;20905;-67
2020/12/13 04:07:53;;;;;;;23.27;15.60;;;8.80;99.90;;;;;;5093652;28;20481;-67
2020/12/13 04:10:20;;;;;;;24.90;16.97;;;8.80;99.90;;;;;;5093258;28;20183;-67
2020/12/13 04:12:46;;;;;;;24.30;16.05;;;8.80;99.90;;;;;;5093310;28;20164;-67
2020/12/13 04:15:13;;;;;;;23.83;16.83;;;8.70;99.90;;;;;;5093614;28;20211;-67
2020/12/13 04:17:39;;;;;;;23.08;16.63;;;8.80;99.90;;;;;;5093450;28;20409;-67
2020/12/13 04:20:06;;;;;;;21.60;15.00;;;8.90;99.90;;;;;;5093102;28;20529;-67
2020/12/13 04:22:32;;;;;;;23.00;17.02;;;8.90;99.90;;;;;;5093160;28;20449;-67
2020/12/13 04:24:58;;;;;;;24.30;16.33;;;9.00;99.90;;;;;;5093186;28;20159;-66
2020/12/13 04:27:23;;;;;;;32.00;16.67;;;9.00;99.90;;;;;;5093330;28;20406;-67
2020/12/13 04:29:49;;;;;;;24.00;16.47;;;8.80;99.90;;;;;;5093027;28;20821;-67
2020/12/13 04:32:15;;;;;;;21.33;15.57;;;8.80;99.90;;;;;;5093337;28;20179;-67
2020/12/13 04:34:40;;;;;;;20.43;14.50;;;9.00;99.90;;;;;;5109036;28;20168;-67
2020/12/13 04:37:06;;;;;;;18.97;13.23;;;8.90;99.90;;;;;;5093044;28;20167;-67
2020/12/13 04:39:31;;;;;;;23.67;15.90;;;8.80;99.90;;;;;;5093307;28;20609;-67
2020/12/13 04:41:57;;;;;;;21.57;16.00;;;8.90;99.90;;;;;;5095002;28;20706;-67
2020/12/13 04:44:23;;;;;;;21.80;15.80;;;9.00;99.90;;;;;;5097780;28;20179;-67
2020/12/13 04:46:53;;;;;;;25.60;15.83;;;8.90;99.90;;;;;;5097131;28;20632;-67
2020/12/13 04:49:22;;;;;;;24.20;16.93;;;9.00;99.90;;;;;;5097093;28;20790;-67
2020/12/13 04:51:52;;;;;;;19.83;15.53;;;9.00;99.90;;;;;;5097504;28;20412;-66
2020/12/13 04:54:22;;;;;;;22.80;15.85;;;9.00;25.30;;;;;;5097576;28;20382;-66
2020/12/13 04:56:50;;;;;;;20.50;15.67;;;8.90;8.90;;;;;;5097059;28;20180;-67
2020/12/13 04:59:17;;;;;;;22.77;15.37;;;8.80;92.00;;;;;;5096854;28;20775;-67
2020/12/13 05:01:45;;;;;;;23.70;16.20;;;8.80;99.90;;;;;;5096690;28;20908;-67
2020/12/13 05:04:10;;;;;;;23.17;14.97;;;9.00;99.90;;;;;;5097035;28;20198;-67
2020/12/13 05:06:36;;;;;;;22.93;16.27;;;8.80;88.90;;;;;;5112487;28;20464;-67
2020/12/13 05:09:04;;;;;;;21.13;15.20;;;8.90;99.90;;;;;;5097033;28;20608;-67
2020/12/13 05:11:30;;;;;;;22.17;15.30;;;8.90;79.60;;;;;;5096971;28;20414;-67
2020/12/13 05:13:56;;;;;;;23.63;15.47;;;8.80;40.50;;;;;;5095483;28;20413;-67
2020/12/13 05:16:22;;;;;;;23.07;13.50;;;8.70;99.90;;;;;;5096947;28;20164;-67
2020/12/13 05:21:20;;;;;;;19.17;12.53;;;8.90;18.70;;;;;;5112387;22;20490;-67
2020/12/13 05:23:47;;;;;;;18.57;12.10;;;8.70;95.00;;;;;;5096741;28;20163;-67
2020/12/13 05:26:18;;;;;;;18.23;13.50;;;8.90;97.50;;;;;;5096659;28;20896;-67
2020/12/13 05:28:49;;;;;;;15.75;10.52;;;8.70;83.90;;;;;;5096652;28;20785;-67
2020/12/13 05:31:17;;;;;;;17.02;10.88;;;8.60;99.90;;;;;;5076337;28;20252;-67
2020/12/13 05:33:46;;;;;;;12.80;9.10;;;8.80;99.90;;;;;;5076018;28;20172;-67
2020/12/13 05:36:14;;;;;;;14.80;11.45;;;8.70;53.90;;;;;;5076246;28;20173;-67
2020/12/13 05:38:41;;;;;;;14.05;10.15;;;8.70;99.90;;;;;;5076374;28;20198;-66
2020/12/13 05:41:09;;;;;;;13.05;9.45;;;8.70;38.50;;;;;;5075811;28;20232;-67
2020/12/13 05:43:40;;;;;;;14.02;10.40;;;8.80;1.00;;;;;;5076516;28;20184;-69
2020/12/13 05:53:45;;;;;;;13.10;9.75;;;8.80;99.90;;;;;;5074926;28;20415;-67
2020/12/13 05:56:11;;;;;;;15.40;9.40;;;8.70;22.10;;;;;;5075565;28;20173;-66
2020/12/13 05:58:37;;;;;;;11.67;8.57;;;8.70;96.40;;;;;;5075973;28;20417;-67
2020/12/13 06:01:06;;;;;;;11.57;9.37;;;8.50;95.20;;;;;;5075319;28;20204;-67
2020/12/13 06:03:34;;;;;;;10.88;8.27;;;8.60;99.90;;;;;;5076206;28;20184;-68
2020/12/13 06:06:08;;;;;;;11.20;9.00;;;8.50;99.90;;;;;;5075497;28;20333;-67
2020/12/13 06:08:36;;;;;;;12.43;8.93;;;8.40;99.90;;;;;;5075642;28;20157;-67
2020/12/13 06:11:06;;;;;;;14.43;9.70;;;8.30;99.90;;;;;;5075287;28;20192;-67
2020/12/13 06:13:43;;;;;;;12.07;9.68;;;8.40;99.90;;;;;;5075231;28;20171;-67
2020/12/13 06:16:10;;;;;;;15.75;9.88;;;8.40;99.90;;;;;;5075255;28;20159;-67
2020/12/13 06:18:35;;;;;;;15.65;9.30;;;8.40;99.90;;;;;;5075160;28;20177;-67
2020/12/13 06:21:03;;;;;;;11.90;9.50;;;8.30;99.90;;;;;;5073634;28;20572;-67
2020/12/13 06:23:31;;;;;;;14.13;10.38;;;8.40;99.90;;;;;;5075087;28;20163;-67
2020/12/13 06:25:57;;;;;;;13.27;11.73;;;8.30;99.90;;;;;;5075317;28;20713;-67
2020/12/13 06:28:23;;;;;;;14.60;10.00;;;8.30;99.90;;;;;;5075301;28;20168;-67
2020/12/13 06:30:48;;;;;;;16.77;10.80;;;8.40;99.90;;;;;;5075427;28;20733;-67
2020/12/13 06:33:19;;;;;;;15.30;11.20;;;8.40;99.90;;;;;;5074964;28;20208;-67
2020/12/13 06:35:45;;;;;;;14.52;10.10;;;8.50;99.90;;;;;;5075152;28;20445;-67
2020/12/13 06:38:17;;;;;;;13.70;10.40;;;8.50;99.90;;;;;;5075408;28;20176;-67
2020/12/13 06:40:46;;;;;;;15.05;10.15;;;8.50;99.90;;;;;;5074900;28;20656;-67
2020/12/13 06:43:11;;;;;;;15.00;9.85;;;8.50;99.90;;;;;;5074663;28;20164;-67
2020/12/13 06:45:37;;;;;;;12.00;8.47;;;8.40;99.90;;;;;;5074660;28;20175;-67
2020/12/13 06:48:03;;;;;;;16.70;9.73;;;8.20;99.90;;;;;;5074895;28;20183;-67
2020/12/13 06:50:28;;;;;;;12.13;9.47;;;8.30;99.90;;;;;;5074454;28;20184;-67
2020/12/13 06:52:54;;;;;;;14.93;9.43;;;8.30;99.90;;;;;;5074763;28;20169;-68
2020/12/13 06:55:33;;;;;;;15.13;8.37;;;8.40;99.90;;;;;;5074444;28;20169;-67
2020/12/13 06:58:03;;;;;;;23.83;11.13;;;8.20;99.90;;;;;;5074687;28;20510;-67
2020/12/13 07:00:49;;;;;;;13.98;11.00;;;8.30;99.90;;;;;;5074452;28;20587;-67
2020/12/13 07:03:25;;;;;;;14.93;9.82;;;8.30;99.90;;;;;;5075118;28;20239;-67
2020/12/13 07:05:55;;;;;;;13.98;10.27;;;8.10;99.90;;;;;;5074201;28;20166;-67
2020/12/13 07:08:23;;;;;;;12.98;10.00;;;8.10;99.90;;;;;;5074500;28;20160;-67
2020/12/13 07:10:52;;;;;;;18.20;11.27;;;8.10;99.90;;;;;;5074013;28;20688;-67
2020/12/13 07:13:23;;;;;;;17.10;9.48;;;8.30;99.90;;;;;;5074127;28;20648;-67
2020/12/13 07:15:56;;;;;;;14.40;9.40;;;8.20;99.90;;;;;;5074277;28;20165;-65
2020/12/13 07:18:22;;;;;;;14.45;10.27;;;8.10;99.90;;;;;;5074162;28;20168;-66
2020/12/13 07:20:48;;;;;;;11.65;9.27;;;8.30;99.90;;;;;;5073642;28;20204;-67
2020/12/13 07:23:13;;;;;;;15.60;10.63;;;8.00;99.90;;;;;;5073832;28;20698;-67
2020/12/13 07:25:40;;;;;;;14.10;10.20;;;8.20;99.90;;;;;;5073936;28;20656;-67
2020/12/13 07:28:07;;;;;;;13.73;10.02;;;8.00;99.90;;;;;;5073828;28;20209;-67
2020/12/13 07:30:35;;;;;;;14.98;10.20;;;8.10;99.90;;;;;;5074465;28;20578;-67
2020/12/13 07:33:01;;;;;;;13.25;11.27;;;8.30;99.90;;;;;;5073902;28;20184;-67
2020/12/13 07:35:26;;;;;;;18.37;11.07;;;8.30;99.90;;;;;;5073614;28;20164;-67
2020/12/13 07:37:53;;;;;;;12.10;10.10;;;8.40;99.90;;;;;;5073598;28;20294;-67
2020/12/13 07:40:19;;;;;;;13.13;10.20;;;8.40;99.90;;;;;;5073696;28;20271;-67
2020/12/13 07:43:01;;;;;;;17.77;10.93;;;8.50;16.00;;;;;;5073798;28;20165;-67
2020/12/13 07:45:28;;;;;;;13.27;10.85;;;8.40;1.00;;;;;;5073807;28;20546;-67
2020/12/13 07:48:04;;;;;;;17.02;11.10;;;8.20;34.00;;;;;;5073433;28;20177;-67
2020/12/13 07:50:46;;;;;;;15.32;10.25;;;8.20;14.80;;;;;;5073410;28;20221;-67
2020/12/13 07:53:22;;;;;;;14.30;10.45;;;8.30;1.90;;;;;;5073625;28;20185;-67
2020/12/13 07:55:47;;;;;;;17.20;12.05;;;8.10;1.00;;;;;;5073890;28;20222;-67
2020/12/13 07:58:20;;;;;;;17.30;10.40;;;8.30;3.60;;;;;;5073307;28;20176;-67
2020/12/13 08:00:46;;;;;;;18.77;10.35;;;8.20;1.00;;;;;;5073488;28;20282;-67
2020/12/13 08:03:13;;;;;;;14.83;10.77;;;8.20;1.00;;;;;;5073229;28;20200;-67
2020/12/13 08:05:41;;;;;;;16.85;10.93;;;8.20;1.00;;;;;;5073528;28;20490;-68
2020/12/13 08:08:08;;;;;;;20.35;12.38;;;8.30;1.00;;;;;;5073391;28;20176;-67
2020/12/13 08:10:34;;;;;;;21.13;11.85;;;8.30;1.00;;;;;;5073338;28;20219;-67
2020/12/13 08:13:00;;;;;;;16.30;11.07;;;8.30;1.00;;;;;;5073092;28;20173;-67
2020/12/13 08:15:26;;;;;;;16.57;11.73;;;8.20;1.00;;;;;;5072626;28;20207;-66
2020/12/13 08:18:07;;;;;;;15.70;10.48;;;8.20;1.00;;;;;;5072741;28;20389;-66
2020/12/13 08:20:37;;;;;;;14.75;10.88;;;8.30;1.00;;;;;;5072706;28;20580;-67
2020/12/13 08:23:05;;;;;;;13.40;10.15;;;8.40;1.00;;;;;;5073319;28;20200;-67
2020/12/13 08:25:35;;;;;;;18.35;12.52;;;8.30;1.00;;;;;;5072961;28;20156;-68
2020/12/13 08:28:03;;;;;;;16.77;11.27;;;8.30;1.00;;;;;;5072961;28;20161;-67
2020/12/13 08:30:30;;;;;;;16.02;11.20;;;8.40;1.00;;;;;;5073069;28;20266;-67
2020/12/13 08:32:58;;;;;;;14.50;10.93;;;8.40;1.00;;;;;;5072984;28;20251;-67
2020/12/13 08:35:27;;;;;;;15.45;12.00;;;8.60;1.00;;;;;;5073831;28;20187;-67
2020/12/13 08:37:58;;;;;;;21.02;12.02;;;8.50;1.00;;;;;;5073564;28;20169;-65
2020/12/13 08:40:53;;;;;;;17.55;12.07;;;8.40;1.00;;;;;;5073437;28;20267;-66
2020/12/13 08:43:19;;;;;;;15.55;10.30;;;8.40;1.00;;;;;;5063752;28;20193;-67
2020/12/13 08:45:54;;;;;;;17.87;10.40;;;8.40;1.00;;;;;;5073155;28;20641;-67
2020/12/13 08:48:27;;;;;;;19.75;10.90;;;8.50;1.00;;;;;;5072912;28;20398;-67
2020/12/13 08:51:07;;;;;;;17.65;11.20;;;8.30;99.90;;;;;;5073077;28;20198;-66
2020/12/13 08:53:32;;;;;;;18.45;10.38;;;8.30;1.00;;;;;;5073017;28;20255;-67
2020/12/13 08:56:16;;;;;;;18.70;11.87;;;8.40;1.00;;;;;;5072928;28;20653;-68
2020/12/13 08:58:52;;;;;;;18.92;11.18;;;8.50;1.00;;;;;;5072953;28;20162;-68
2020/12/13 09:01:21;;;;;;;22.75;12.65;;;8.50;99.90;;;;;;5072874;28;20704;-67
2020/12/13 09:03:47;;;;;;;19.77;11.60;;;8.50;99.90;;;;;;5072524;28;20256;-67
2020/12/13 09:06:27;;;;;;;14.20;10.57;;;8.50;1.00;;;;;;5072591;28;20192;-68
2020/12/13 09:08:53;;;;;;;14.00;10.10;;;8.60;99.90;;;;;;5072514;28;20154;-67
2020/12/13 09:11:36;;;;;;;16.70;11.63;;;8.50;99.90;;;;;;5088142;28;20249;-67
2020/12/13 09:14:03;;;;;;;20.83;11.75;;;8.60;99.90;;;;;;5072527;28;20179;-67
2020/12/13 09:16:33;;;;;;;14.40;11.32;;;8.60;99.90;;;;;;5072384;28;20169;-67
2020/12/13 09:19:08;;;;;;;15.43;10.80;;;8.70;99.90;;;;;;5072220;28;20186;-67
2020/12/13 09:21:45;;;;;;;21.98;11.40;;;8.60;1.00;;;;;;5072987;28;20929;-67
2020/12/13 09:24:11;;;;;;;18.83;11.83;;;8.70;99.90;;;;;;5072731;28;20153;-67
2020/12/13 09:26:36;;;;;;;16.30;11.30;;;8.70;99.90;;;;;;5072688;28;20415;-67
2020/12/13 09:29:02;;;;;;;17.90;10.87;;;8.80;1.00;;;;;;5076037;28;20458;-67
2020/12/13 09:31:28;;;;;;;17.80;10.27;;;8.70;26.90;;;;;;5076089;28;20177;-68
2020/12/13 09:33:53;;;;;;;15.40;9.77;;;8.60;1.00;;;;;;5076130;28;20460;-67
2020/12/13 09:36:19;;;;;;;13.37;10.30;;;8.70;99.90;;;;;;5076000;28;20513;-67
2020/12/13 09:38:45;;;;;;;14.07;9.50;;;8.70;1.00;;;;;;5076017;28;20293;-67
2020/12/13 09:41:17;;;;;;;12.55;10.07;;;8.90;99.90;;;;;;5075980;28;20287;-67
2020/12/13 09:43:43;;;;;;;14.88;9.45;;;8.90;99.90;;;;;;5075945;28;20158;-67
2020/12/13 09:46:08;;;;;;;16.10;10.73;;;8.80;99.90;;;;;;5076032;28;20171;-67
2020/12/13 09:48:34;;;;;;;14.20;10.00;;;8.90;99.90;;;;;;5075977;28;20179;-67
2020/12/13 09:50:59;;;;;;;15.00;10.30;;;9.00;1.00;;;;;;5075624;28;20205;-67
2020/12/13 09:53:25;;;;;;;14.60;8.70;;;8.90;99.90;;;;;;5075620;28;20521;-67
2020/12/13 09:55:50;;;;;;;14.70;8.83;;;9.00;23.50;;;;;;5075699;28;20540;-67
2020/12/13 09:58:16;;;;;;;16.13;8.40;;;9.00;99.90;;;;;;5075772;28;20182;-66
2020/12/13 10:00:41;;;;;;;14.87;9.10;;;9.00;99.90;;;;;;5075350;28;20196;-67
2020/12/13 10:03:07;;;;;;;16.60;9.90;;;9.20;99.90;;;;;;5075595;28;20256;-68
2020/12/13 10:05:53;;;;;;;17.87;10.20;;;9.20;99.90;;;;;;5075431;28;20175;-67
2020/12/13 10:11:03;;;;;;;18.60;11.23;;;9.20;1.00;;;;;;5075495;28;20477;-67
2020/12/13 10:13:29;;;;;;;12.63;8.40;;;9.20;5.50;;;;;;5075456;28;20814;-67
2020/12/13 10:15:54;;;;;;;14.30;9.57;;;9.40;99.90;;;;;;5075648;28;20168;-67
2020/12/13 10:18:20;;;;;;;12.60;8.43;;;9.40;75.40;;;;;;5075203;28;20176;-67
2020/12/13 10:20:46;;;;;;;18.60;8.60;;;9.30;1.00;;;;;;5074864;28;20245;-67
2020/12/13 10:23:12;;;;;;;12.00;9.20;;;9.40;1.00;;;;;;5075065;28;20489;-67
2020/12/13 10:25:37;;;;;;;11.13;8.43;;;9.50;1.00;;;;;;5075372;28;20198;-66
2020/12/13 10:28:03;;;;;;;12.60;9.13;;;9.40;1.00;;;;;;5075281;28;20597;-67
2020/12/13 10:30:28;;;;;;;17.90;9.40;;;9.40;99.90;;;;;;5075215;28;20217;-67
2020/12/13 10:32:57;;;;;;;14.13;7.50;;;9.50;1.00;;;;;;5075274;28;20182;-67
2020/12/13 10:35:22;;;;;;;12.83;8.43;;;9.60;99.90;;;;;;5075634;28;20176;-67
2020/12/13 10:37:48;;;;;;;11.30;7.60;;;9.60;99.90;;;;;;5075045;28;20814;-67
2020/12/13 10:40:13;;;;;;;9.20;7.13;;;9.60;1.00;;;;;;5074280;28;20564;-67
2020/12/13 10:42:39;;;;;;;13.27;7.80;;;9.50;99.90;;;;;;5074698;28;20200;-67
2020/12/13 10:45:04;;;;;;;11.90;8.70;;;9.40;99.90;;;;;;5074700;28;20199;-67
2020/12/13 10:47:30;;;;;;;11.20;7.40;;;9.60;1.00;;;;;;5074792;28;20253;-67
2020/12/13 10:49:55;;;;;;;15.60;8.20;;;9.70;1.00;;;;;;5074481;28;20296;-67
2020/12/13 10:52:21;;;;;;;13.00;7.77;;;9.60;99.90;;;;;;5074428;28;20723;-68
2020/12/13 10:54:46;;;;;;;9.83;6.33;;;9.50;91.80;;;;;;5075076;28;20176;-68
2020/12/13 10:57:12;;;;;;;9.13;6.50;;;9.50;99.90;;;;;;5074593;28;20176;-67
2020/12/13 10:59:37;;;;;;;9.10;6.30;;;9.60;31.00;;;;;;5074346;28;20722;-67
2020/12/13 11:02:03;;;;;;;6.83;4.80;;;9.60;1.00;;;;;;5074297;28;20199;-67
2020/12/13 11:04:29;;;;;;;8.50;5.10;;;9.60;1.00;;;;;;5074310;28;20171;-66
2020/12/13 11:06:54;;;;;;;6.10;4.13;;;9.70;99.90;;;;;;5074218;28;20160;-67
2020/12/13 11:09:20;;;;;;;6.63;4.43;;;9.80;99.90;;;;;;5074066;28;20199;-66
2020/12/13 11:11:47;;;;;;;9.20;4.97;;;9.80;99.90;;;;;;5074101;28;20177;-67
2020/12/13 11:14:12;;;;;;;6.70;3.30;;;9.80;99.90;;;;;;5074387;28;20524;-67
2020/12/13 11:16:38;;;;;;;3.80;3.40;;;9.70;99.90;;;;;;5074262;28;20406;-66
2020/12/13 11:19:05;;;;;;;4.93;3.73;;;9.80;99.90;;;;;;5073890;28;20195;-67
2020/12/13 11:21:31;;;;;;;6.70;3.53;;;9.80;99.90;;;;;;5075399;28;20200;-64
2020/12/13 11:23:56;;;;;;;9.33;3.20;;;9.80;99.90;;;;;;5073769;28;20956;-66
2020/12/13 11:26:22;;;;;;;5.80;3.90;;;9.70;99.90;;;;;;5073844;28;20177;-66
2020/12/13 11:28:47;;;;;;;6.17;3.20;;;9.70;99.90;;;;;;5073631;28;20168;-67
2020/12/13 11:31:15;;;;;;;4.97;3.90;;;9.60;99.90;;;;;;5073620;28;20276;-66
2020/12/13 11:33:41;;;;;;;5.63;4.00;;;9.50;99.90;;;;;;5073671;28;20190;-65
2020/12/13 11:36:06;;;;;;;4.70;2.90;;;9.60;99.90;;;;;;5073783;28;20415;-66
2020/12/13 11:38:32;;;;;;;5.33;2.87;;;9.80;99.90;;;;;;5073399;28;20179;-66
2020/12/13 11:40:57;;;;;;;5.40;3.00;;;9.70;99.90;;;;;;5073894;28;20203;-66
2020/12/13 11:43:23;;;;;;;7.07;2.53;;;9.70;99.90;;;;;;5073595;28;20170;-65
2020/12/13 11:45:48;;;;;;;5.43;2.47;;;9.60;99.90;;;;;;5073504;28;20579;-65
2020/12/13 11:48:14;;;;;;;5.23;3.67;;;9.80;99.90;;;;;;5073901;28;20218;-65
2020/12/13 11:50:43;;;;;;;3.77;2.47;;;9.60;99.90;;;;;;5072913;28;20194;-66
2020/12/13 11:53:09;;;;;;;7.03;3.57;;;9.80;99.90;;;;;;5073413;28;20172;-65
2020/12/13 11:55:35;;;;;;;3.93;2.20;;;9.80;90.60;;;;;;5073406;28;20896;-66
2020/12/13 11:58:00;;;;;;;6.40;2.00;;;9.90;78.00;;;;;;5073303;28;20678;-66
2020/12/13 12:00:26;;;;;;;2.47;1.70;;;9.80;27.90;;;;;;5073151;28;20189;-66
2020/12/13 12:02:51;;;;;;;2.10;1.40;;;9.90;57.50;;;;;;5073288;28;20194;-65
2020/12/13 12:05:17;;;;;;;2.60;1.30;;;9.70;26.50;;;;;;5073237;28;20259;-66
2020/12/13 12:07:43;;;;;;;3.13;2.23;;;10.00;33.10;;;;;;5074235;28;20178;-65
2020/12/13 12:10:08;;;;;;;4.83;1.70;;;9.90;32.90;;;;;;5073317;28;21120;-65
2020/12/13 12:12:34;;;;;;;4.77;1.80;;;10.10;22.00;;;;;;5073225;28;20206;-66
2020/12/13 12:14:59;;;;;;;3.50;1.60;;;9.90;31.20;;;;;;5073093;28;20172;-66
2020/12/13 12:17:25;;;;;;;4.10;1.50;;;10.10;17.40;;;;;;5072986;28;20198;-66
2020/12/13 12:19:52;;;;;;;4.10;2.00;;;10.60;1.00;;;;;;5072811;28;20212;-66
2020/12/13 12:22:17;;;;;;;2.87;1.83;;;11.30;1.00;;;;;;5073068;28;20204;-66
2020/12/13 12:24:43;;;;;;;3.60;1.57;;;11.60;1.00;;;;;;5073024;28;20917;-65
2020/12/13 12:27:08;;;;;;;3.30;1.60;;;11.70;1.00;;;;;;5072956;28;20168;-66
2020/12/13 12:29:34;;;;;;;3.70;1.50;;;12.20;1.00;;;;;;5073199;28;20192;-66
2020/12/13 12:32:00;;;;;;;3.07;1.60;;;12.40;1.00;;;;;;5073124;28;20176;-66
2020/12/13 12:34:26;;;;;;;2.30;1.60;;;12.80;1.00;;;;;;5072729;28;20548;-66
2020/12/13 12:36:51;;;;;;;3.00;1.70;;;13.00;1.00;;;;;;5073170;28;20222;-66
2020/12/13 12:39:17;;;;;;;4.73;1.30;;;13.30;1.00;;;;;;5073224;28;20263;-66
2020/12/13 12:41:42;;;;;;;1.67;1.30;;;13.40;1.00;;;;;;5073438;28;20545;-66
2020/12/13 12:44:08;;;;;;;2.50;0.90;;;13.00;1.00;;;;;;5072870;28;20588;-66
2020/12/13 12:46:34;;;;;;;4.00;1.23;;;13.00;1.00;;;;;;5074678;28;20548;-65
2020/12/13 12:49:00;;;;;;;3.57;1.13;;;12.70;1.00;;;;;;5074155;28;20536;-66
2020/12/13 12:51:28;;;;;;;3.63;1.00;;;12.50;1.00;;;;;;5073924;28;20410;-65
2020/12/13 12:53:54;;;;;;;2.30;0.90;;;12.10;1.00;;;;;;5073112;28;20184;-65
2020/12/13 12:56:20;;;;;;;3.50;1.17;;;12.10;1.00;;;;;;5072754;28;20941;-64
2020/12/13 13:01:15;;;;;;;4.73;1.50;;;11.80;1.00;;;;;;5072735;28;20557;-64